createdAt,value
2023-01-20T00:00:04.009Z,0.30
2023-01-20T00:01:05.826Z,0.30
2023-01-20T00:02:07.931Z,0.30
2023-01-20T00:03:09.743Z,0.40
2023-01-20T00:04:11.933Z,0.30
2023-01-20T00:05:14.318Z,0.30
2023-01-20T00:06:16.918Z,0.30
2023-01-20T00:07:18.722Z,0.30
2023-01-20T00:08:20.601Z,0.30
2023-01-20T00:09:22.513Z,0.30
2023-01-20T00:10:24.203Z,0.30
2023-01-20T00:11:26.365Z,0.30
2023-01-20T00:12:30.188Z,0.30
2023-01-20T00:13:32.263Z,0.30
2023-01-20T00:14:34.241Z,0.40
2023-01-20T00:15:36.282Z,0.30
2023-01-20T00:16:38.154Z,0.30
2023-01-20T00:17:39.904Z,0.30
2023-01-20T00:18:41.804Z,0.30
2023-01-20T00:19:43.445Z,0.30
2023-01-20T00:20:45.293Z,0.30
2023-01-20T00:21:46.940Z,0.30
2023-01-20T00:22:49.288Z,0.30
2023-01-20T00:23:51.194Z,0.40
2023-01-20T00:24:53.040Z,0.40
2023-01-20T00:25:55.076Z,0.40
2023-01-20T00:26:56.964Z,0.30
2023-01-20T00:27:58.921Z,0.40
2023-01-20T00:29:01.005Z,0.40
2023-01-20T00:30:02.947Z,0.40
2023-01-20T00:31:15.225Z,0.30
2023-01-20T00:32:36.678Z,0.40
2023-01-20T00:33:38.545Z,0.40
2023-01-20T00:34:40.365Z,0.40
2023-01-20T00:35:42.181Z,0.30
2023-01-20T00:36:44.345Z,0.40
2023-01-20T00:37:46.152Z,0.40
2023-01-20T00:38:49.033Z,0.40
2023-01-20T00:39:50.754Z,0.40
2023-01-20T00:40:56.019Z,0.40
2023-01-20T00:41:57.901Z,0.40
2023-01-20T00:43:01.343Z,0.40
2023-01-20T00:44:03.290Z,0.40
2023-01-20T00:45:05.391Z,0.40
2023-01-20T00:46:07.285Z,0.40
2023-01-20T00:47:09.144Z,0.40
2023-01-20T00:48:11.188Z,0.40
2023-01-20T00:49:13.113Z,0.40
2023-01-20T00:50:15.360Z,0.40
2023-01-20T00:51:17.184Z,0.40
2023-01-20T00:52:18.905Z,0.40
2023-01-20T00:53:20.713Z,0.40
2023-01-20T00:54:22.540Z,0.40
2023-01-20T00:55:25.652Z,0.40
2023-01-20T00:56:27.392Z,0.40
2023-01-20T00:57:29.271Z,0.40
2023-01-20T00:58:31.095Z,0.40
2023-01-20T00:59:32.976Z,0.40
2023-01-20T01:00:35.019Z,0.40
2023-01-20T01:01:37.088Z,0.40
2023-01-20T01:02:40.158Z,0.40
2023-01-20T01:03:42.312Z,0.40
2023-01-20T01:04:44.353Z,0.40
2023-01-20T01:05:46.132Z,0.40
2023-01-20T01:06:49.998Z,0.40
2023-01-20T01:07:51.662Z,0.40
2023-01-20T01:08:53.534Z,0.30
2023-01-20T01:09:55.236Z,0.30
2023-01-20T01:10:57.467Z,0.30
2023-01-20T01:11:59.642Z,0.30
2023-01-20T01:13:02.266Z,0.30
2023-01-20T01:14:04.298Z,0.30
2023-01-20T01:15:06.342Z,0.30
2023-01-20T01:16:12.670Z,0.30
2023-01-20T01:17:14.610Z,0.30
2023-01-20T01:18:17.152Z,0.30
2023-01-20T01:19:19.190Z,0.30
2023-01-20T01:20:21.089Z,0.30
2023-01-20T01:21:23.215Z,0.30
2023-01-20T01:22:25.242Z,0.20
2023-01-20T01:23:27.059Z,0.20
2023-01-20T01:24:28.884Z,0.20
2023-01-20T01:25:31.037Z,0.20
2023-01-20T01:26:32.694Z,0.10
2023-01-20T01:27:34.532Z,0.10
2023-01-20T01:28:36.368Z,0.10
2023-01-20T01:29:38.240Z,0.10
2023-01-20T01:30:40.121Z,0.10
2023-01-20T01:31:41.993Z,0.10
2023-01-20T01:32:43.825Z,0.10
2023-01-20T01:33:45.569Z,0.10
2023-01-20T01:34:47.433Z,0.10
2023-01-20T01:35:56.447Z,0.00
2023-01-20T01:36:58.309Z,0.00
2023-01-20T01:38:00.125Z,0.00
2023-01-20T01:39:02.236Z,0.00
2023-01-20T01:40:04.579Z,0.00
2023-01-20T01:41:06.439Z,0.00
2023-01-20T01:42:15.600Z,0.00
2023-01-20T01:43:22.042Z,0.00
2023-01-20T01:44:26.291Z,-0.10
2023-01-20T01:45:29.336Z,0.00
2023-01-20T01:46:31.177Z,-0.10
2023-01-20T01:47:32.974Z,-0.10
2023-01-20T01:48:35.010Z,-0.10
2023-01-20T01:49:36.882Z,-0.10
2023-01-20T01:50:42.305Z,-0.10
2023-01-20T01:51:46.947Z,-0.10
2023-01-20T01:52:49.822Z,-0.10
2023-01-20T01:53:59.325Z,-0.10
2023-01-20T01:55:02.534Z,-0.10
2023-01-20T01:56:04.973Z,-0.10
2023-01-20T01:57:07.660Z,-0.10
2023-01-20T01:58:11.146Z,-0.10
2023-01-20T01:59:14.242Z,-0.10
2023-01-20T02:00:17.231Z,-0.10
2023-01-20T02:01:19.197Z,0.00
2023-01-20T02:02:24.039Z,0.00
2023-01-20T02:03:28.597Z,0.00
2023-01-20T02:04:31.327Z,0.00
2023-01-20T02:05:33.083Z,0.00
2023-01-20T02:06:35.991Z,0.00
2023-01-20T02:07:38.066Z,-0.10
2023-01-20T02:08:40.171Z,-0.10
2023-01-20T02:09:42.324Z,-0.10
2023-01-20T02:10:43.988Z,-0.10
2023-01-20T02:11:48.744Z,-0.10
2023-01-20T02:12:51.905Z,-0.20
2023-01-20T02:13:53.653Z,-0.20
2023-01-20T02:14:56.958Z,-0.20
2023-01-20T02:15:58.983Z,-0.20
2023-01-20T02:17:09.955Z,-0.10
2023-01-20T02:18:30.591Z,-0.10
2023-01-20T02:19:44.111Z,-0.10
2023-01-20T02:20:58.292Z,-0.20
2023-01-20T02:22:11.765Z,-0.20
2023-01-20T02:23:25.310Z,-0.20
2023-01-20T02:24:27.344Z,-0.20
2023-01-20T02:25:38.147Z,-0.20
2023-01-20T02:26:58.959Z,-0.20
2023-01-20T02:28:18.505Z,-0.10
2023-01-20T02:29:39.236Z,-0.10
2023-01-20T02:30:41.133Z,-0.20
2023-01-20T02:33:06.446Z,-0.20
2023-01-20T02:34:20.184Z,-0.20
2023-01-20T02:35:54.257Z,-0.20
2023-01-20T02:37:15.211Z,-0.20
2023-01-20T02:38:35.032Z,-0.20
2023-01-20T02:39:39.453Z,-0.20
2023-01-20T02:40:41.232Z,-0.20
2023-01-20T02:42:09.443Z,-0.20
2023-01-20T02:43:16.553Z,-0.20
2023-01-20T02:44:36.802Z,-0.30
2023-01-20T02:45:41.485Z,-0.30
2023-01-20T02:46:55.276Z,-0.30
2023-01-20T02:48:11.153Z,-0.30
2023-01-20T02:49:17.826Z,-0.30
2023-01-20T02:50:32.216Z,-0.30
2023-01-20T02:51:39.123Z,-0.30
2023-01-20T02:52:43.577Z,-0.20
2023-01-20T02:53:48.286Z,-0.20
2023-01-20T02:54:52.537Z,-0.20
2023-01-20T02:55:54.835Z,-0.20
2023-01-20T02:56:58.532Z,-0.20
2023-01-20T02:58:13.670Z,-0.20
2023-01-20T02:59:17.659Z,-0.20
2023-01-20T03:00:23.040Z,-0.20
2023-01-20T03:01:32.833Z,-0.20
2023-01-20T03:02:36.995Z,-0.20
2023-01-20T03:03:40.862Z,-0.20
2023-01-20T03:04:47.298Z,-0.20
2023-01-20T03:05:51.968Z,-0.20
2023-01-20T03:06:55.055Z,-0.20
2023-01-20T03:07:58.530Z,-0.10
2023-01-20T03:09:01.458Z,-0.10
2023-01-20T03:10:05.363Z,-0.10
2023-01-20T03:11:08.519Z,-0.10
2023-01-20T03:12:15.019Z,-0.10
2023-01-20T03:13:20.849Z,0.00
2023-01-20T03:14:23.020Z,-0.10
2023-01-20T03:15:28.995Z,-0.10
2023-01-20T03:16:31.492Z,-0.10
2023-01-20T03:17:33.905Z,-0.10
2023-01-20T03:18:36.543Z,-0.10
2023-01-20T03:19:38.701Z,-0.10
2023-01-20T03:20:40.563Z,-0.10
2023-01-20T03:21:42.682Z,-0.10
2023-01-20T03:22:44.803Z,-0.10
2023-01-20T03:23:48.041Z,-0.10
2023-01-20T03:24:51.010Z,-0.10
2023-01-20T03:25:53.274Z,-0.10
2023-01-20T03:26:55.109Z,-0.10
2023-01-20T03:27:57.125Z,-0.10
2023-01-20T03:28:59.569Z,-0.10
2023-01-20T03:30:01.343Z,-0.10
2023-01-20T03:31:17.587Z,-0.10
2023-01-20T03:32:26.048Z,-0.10
2023-01-20T03:33:27.935Z,-0.10
2023-01-20T03:34:31.538Z,-0.10
2023-01-20T03:35:33.608Z,-0.10
2023-01-20T03:36:35.451Z,-0.10
2023-01-20T03:37:37.223Z,-0.10
2023-01-20T03:38:39.088Z,-0.10
2023-01-20T03:39:41.139Z,-0.10
2023-01-20T03:40:47.393Z,-0.10
2023-01-20T03:41:53.684Z,-0.10
2023-01-20T03:43:06.624Z,-0.10
2023-01-20T03:44:17.452Z,-0.10
2023-01-20T03:45:30.674Z,-0.10
2023-01-20T03:46:42.168Z,-0.20
2023-01-20T03:47:44.184Z,-0.10
2023-01-20T03:48:58.124Z,-0.20
2023-01-20T03:50:10.312Z,-0.20
2023-01-20T03:51:21.276Z,-0.20
2023-01-20T03:52:46.672Z,-0.20
2023-01-20T03:53:53.633Z,-0.20
2023-01-20T03:54:59.500Z,-0.30
2023-01-20T03:56:04.631Z,-0.30
2023-01-20T03:57:12.396Z,-0.30
2023-01-20T03:58:16.144Z,-0.30
2023-01-20T03:59:19.956Z,-0.30
2023-01-20T04:00:22.906Z,-0.30
2023-01-20T04:01:27.059Z,-0.30
2023-01-20T04:02:29.112Z,-0.30
2023-01-20T04:03:32.473Z,-0.30
2023-01-20T04:04:35.559Z,-0.30
2023-01-20T04:05:38.812Z,-0.30
2023-01-20T04:06:41.706Z,-0.20
2023-01-20T04:07:45.391Z,-0.20
2023-01-20T04:08:50.841Z,-0.20
2023-01-20T04:09:54.615Z,-0.20
2023-01-20T04:10:58.012Z,-0.20
2023-01-20T04:11:59.754Z,-0.20
2023-01-20T04:13:01.634Z,-0.20
2023-01-20T04:14:03.549Z,-0.20
2023-01-20T04:15:06.832Z,-0.20
2023-01-20T04:16:11.188Z,-0.20
2023-01-20T04:17:13.187Z,-0.20
2023-01-20T04:18:17.178Z,-0.30
2023-01-20T04:19:19.300Z,-0.30
2023-01-20T04:20:21.489Z,-0.30
2023-01-20T04:21:31.567Z,-0.30
2023-01-20T04:22:44.147Z,-0.30
2023-01-20T04:23:48.535Z,-0.30
2023-01-20T04:24:55.782Z,-0.30
2023-01-20T04:25:57.581Z,-0.30
2023-01-20T04:26:59.428Z,-0.30
2023-01-20T04:28:01.268Z,-0.30
2023-01-20T04:29:10.558Z,-0.30
2023-01-20T04:30:14.692Z,-0.30
2023-01-20T04:31:29.663Z,-0.30
2023-01-20T04:32:32.148Z,-0.30
2023-01-20T04:33:36.404Z,-0.30
2023-01-20T04:34:38.537Z,-0.20
2023-01-20T04:35:40.211Z,-0.30
2023-01-20T04:36:42.611Z,-0.20
2023-01-20T04:37:44.685Z,-0.20
2023-01-20T04:38:46.462Z,-0.20
2023-01-20T04:39:48.375Z,-0.20
2023-01-20T04:40:50.291Z,-0.20
2023-01-20T04:41:52.113Z,-0.20
2023-01-20T04:42:53.810Z,-0.20
2023-01-20T04:43:55.703Z,-0.20
2023-01-20T04:44:57.622Z,-0.20
2023-01-20T04:45:59.339Z,-0.20
2023-01-20T04:47:01.248Z,-0.20
2023-01-20T04:48:07.395Z,-0.20
2023-01-20T04:49:11.463Z,-0.20
2023-01-20T04:50:14.239Z,-0.20
2023-01-20T04:51:16.372Z,-0.20
2023-01-20T04:52:18.424Z,-0.20
2023-01-20T04:53:20.292Z,-0.30
2023-01-20T04:54:22.355Z,-0.20
2023-01-20T04:55:24.249Z,-0.30
2023-01-20T04:56:26.528Z,-0.30
2023-01-20T04:57:28.515Z,-0.30
2023-01-20T04:58:30.205Z,-0.30
2023-01-20T04:59:32.021Z,-0.30
2023-01-20T05:00:33.839Z,-0.30
2023-01-20T05:01:35.789Z,-0.30
2023-01-20T05:02:37.692Z,-0.30
2023-01-20T05:03:39.573Z,-0.30
2023-01-20T05:04:41.345Z,-0.40
2023-01-20T05:05:43.175Z,-0.40
2023-01-20T05:06:45.135Z,-0.40
2023-01-20T05:07:46.929Z,-0.40
2023-01-20T05:08:48.821Z,-0.40
2023-01-20T05:09:50.637Z,-0.40
2023-01-20T05:10:52.652Z,-0.40
2023-01-20T05:11:54.888Z,-0.40
2023-01-20T05:12:56.653Z,-0.40
2023-01-20T05:13:58.430Z,-0.40
2023-01-20T05:15:01.649Z,-0.40
2023-01-20T05:16:03.487Z,-0.40
2023-01-20T05:17:05.290Z,-0.40
2023-01-20T05:18:07.932Z,-0.40
2023-01-20T05:19:15.192Z,-0.40
2023-01-20T05:20:19.130Z,-0.40
2023-01-20T05:21:20.948Z,-0.40
2023-01-20T05:22:22.801Z,-0.40
2023-01-20T05:23:24.467Z,-0.30
2023-01-20T05:24:26.182Z,-0.30
2023-01-20T05:25:28.055Z,-0.30
2023-01-20T05:26:29.926Z,-0.30
2023-01-20T05:27:35.905Z,-0.30
2023-01-20T05:28:38.979Z,-0.20
2023-01-20T05:29:43.250Z,-0.20
2023-01-20T05:31:09.884Z,-0.20
2023-01-20T05:32:16.356Z,-0.20
2023-01-20T05:33:20.421Z,-0.20
2023-01-20T05:34:23.931Z,-0.20
2023-01-20T05:35:27.848Z,-0.20
2023-01-20T05:36:33.231Z,-0.20
2023-01-20T05:37:37.029Z,-0.20
2023-01-20T05:38:40.474Z,-0.20
2023-01-20T05:39:44.603Z,-0.10
2023-01-20T05:40:48.119Z,-0.20
2023-01-20T05:41:51.043Z,-0.20
2023-01-20T05:42:55.037Z,-0.10
2023-01-20T05:43:58.802Z,-0.10
2023-01-20T05:45:06.427Z,-0.10
2023-01-20T05:46:13.487Z,-0.10
2023-01-20T05:47:15.844Z,-0.10
2023-01-20T05:48:17.626Z,-0.10
2023-01-20T05:49:20.813Z,-0.10
2023-01-20T05:50:22.627Z,-0.10
2023-01-20T05:51:24.755Z,-0.10
2023-01-20T05:52:26.929Z,-0.10
2023-01-20T05:53:28.724Z,-0.10
2023-01-20T05:54:30.859Z,-0.10
2023-01-20T05:55:32.746Z,-0.10
2023-01-20T05:56:36.368Z,-0.10
2023-01-20T05:57:38.128Z,-0.10
2023-01-20T05:58:39.811Z,-0.10
2023-01-20T05:59:42.520Z,-0.10
2023-01-20T06:00:44.433Z,-0.10
2023-01-20T06:01:46.964Z,-0.10
2023-01-20T06:02:48.715Z,-0.10
2023-01-20T06:03:50.658Z,-0.10
2023-01-20T06:04:52.507Z,-0.10
2023-01-20T06:05:59.329Z,-0.10
2023-01-20T06:07:01.226Z,0.00
2023-01-20T06:08:02.904Z,0.00
2023-01-20T06:09:04.553Z,0.00
2023-01-20T06:10:12.378Z,0.00
2023-01-20T06:11:18.349Z,0.00
2023-01-20T06:12:20.720Z,0.00
2023-01-20T06:13:22.580Z,0.00
2023-01-20T06:14:28.676Z,0.00
2023-01-20T06:15:31.346Z,0.00
2023-01-20T06:16:33.286Z,0.00
2023-01-20T06:17:35.251Z,0.00
2023-01-20T06:18:37.073Z,0.00
2023-01-20T06:19:43.672Z,0.00
2023-01-20T06:20:45.461Z,0.00
2023-01-20T06:21:47.951Z,0.00
2023-01-20T06:22:49.652Z,0.00
2023-01-20T06:23:54.509Z,0.00
2023-01-20T06:24:57.469Z,0.00
2023-01-20T06:26:01.833Z,0.00
2023-01-20T06:27:03.768Z,0.00
2023-01-20T06:28:05.469Z,0.00
2023-01-20T06:29:08.110Z,-0.10
2023-01-20T06:30:10.287Z,0.00
2023-01-20T06:31:17.774Z,0.00
2023-01-20T06:32:20.816Z,0.00
2023-01-20T06:33:22.763Z,0.00
2023-01-20T06:34:24.709Z,-0.10
2023-01-20T06:35:26.712Z,0.00
2023-01-20T06:36:28.405Z,-0.10
2023-01-20T06:37:30.067Z,0.00
2023-01-20T06:38:32.776Z,-0.10
2023-01-20T06:39:34.568Z,0.00
2023-01-20T06:40:36.187Z,-0.10
2023-01-20T06:41:37.818Z,0.00
2023-01-20T06:42:39.593Z,-0.10
2023-01-20T06:43:41.951Z,0.00
2023-01-20T06:44:43.816Z,-0.10
2023-01-20T06:45:45.456Z,-0.10
2023-01-20T06:46:48.351Z,0.00
2023-01-20T06:47:50.199Z,-0.10
2023-01-20T06:48:52.464Z,-0.10
2023-01-20T06:49:54.160Z,-0.10
2023-01-20T06:51:05.589Z,-0.10
2023-01-20T06:52:08.327Z,-0.10
2023-01-20T06:53:11.553Z,-0.10
2023-01-20T06:54:13.208Z,-0.10
2023-01-20T06:55:15.087Z,-0.10
2023-01-20T06:56:20.976Z,0.00
2023-01-20T06:57:27.627Z,0.00
2023-01-20T06:58:30.881Z,0.00
2023-01-20T06:59:32.585Z,0.00
2023-01-20T07:00:34.273Z,0.00
2023-01-20T07:01:36.218Z,0.00
2023-01-20T07:02:38.171Z,0.00
2023-01-20T07:03:42.575Z,0.10
2023-01-20T07:04:44.968Z,0.10
2023-01-20T07:06:02.266Z,0.10
2023-01-20T07:07:04.259Z,0.10
2023-01-20T07:08:06.165Z,0.10
2023-01-20T07:09:09.543Z,0.10
2023-01-20T07:10:11.751Z,0.10
2023-01-20T07:11:13.562Z,0.10
2023-01-20T07:12:15.313Z,0.10
2023-01-20T07:13:17.028Z,0.10
2023-01-20T07:14:18.888Z,0.10
2023-01-20T07:15:20.485Z,0.20
2023-01-20T07:16:22.505Z,0.20
2023-01-20T07:17:24.193Z,0.20
2023-01-20T07:18:25.828Z,0.20
2023-01-20T07:19:27.492Z,0.20
2023-01-20T07:20:29.134Z,0.20
2023-01-20T07:21:31.210Z,0.20
2023-01-20T07:22:32.870Z,0.20
2023-01-20T07:23:34.971Z,0.20
2023-01-20T07:24:36.832Z,0.20
2023-01-20T07:25:39.512Z,0.20
2023-01-20T07:26:41.164Z,0.20
2023-01-20T07:27:43.618Z,0.20
2023-01-20T07:28:45.816Z,0.20
2023-01-20T07:29:47.655Z,0.30
2023-01-20T07:30:49.342Z,0.30
2023-01-20T07:31:51.033Z,0.30
2023-01-20T07:32:53.410Z,0.30
2023-01-20T07:33:56.297Z,0.30
2023-01-20T07:34:57.920Z,0.30
2023-01-20T07:36:00.404Z,0.40
2023-01-20T07:37:02.615Z,0.40
2023-01-20T07:38:04.570Z,0.40
2023-01-20T07:39:06.220Z,0.40
2023-01-20T07:40:08.487Z,0.40
2023-01-20T07:41:12.282Z,0.50
2023-01-20T07:42:13.976Z,0.40
2023-01-20T07:43:15.754Z,0.50
2023-01-20T07:44:17.436Z,0.40
2023-01-20T07:45:19.085Z,0.50
2023-01-20T07:46:21.286Z,0.50
2023-01-20T07:47:22.938Z,0.50
2023-01-20T07:48:25.661Z,0.50
2023-01-20T07:49:27.421Z,0.60
2023-01-20T07:50:29.368Z,0.60
2023-01-20T07:51:31.200Z,0.60
2023-01-20T07:52:32.885Z,0.60
2023-01-20T07:53:35.842Z,0.60
2023-01-20T07:54:37.472Z,0.60
2023-01-20T07:55:39.143Z,0.60
2023-01-20T07:56:40.876Z,0.70
2023-01-20T07:57:42.883Z,0.70
2023-01-20T07:58:50.394Z,0.70
2023-01-20T07:59:52.086Z,0.70
2023-01-20T08:00:53.834Z,0.80
2023-01-20T08:01:55.592Z,0.80
2023-01-20T08:02:57.252Z,0.80
2023-01-20T08:04:02.609Z,0.90
2023-01-20T08:05:04.868Z,0.90
2023-01-20T08:06:08.451Z,0.90
2023-01-20T08:07:10.351Z,0.90
2023-01-20T08:08:11.988Z,0.90
2023-01-20T08:09:17.990Z,0.90
2023-01-20T08:10:20.729Z,0.90
2023-01-20T08:11:22.862Z,0.90
2023-01-20T08:12:24.627Z,0.90
2023-01-20T08:13:26.288Z,1.00
2023-01-20T08:14:27.961Z,0.90
2023-01-20T08:15:29.589Z,0.90
2023-01-20T08:16:31.488Z,1.00
2023-01-20T08:17:33.148Z,0.90
2023-01-20T08:18:35.431Z,1.00
2023-01-20T08:19:37.479Z,1.00
2023-01-20T08:20:42.726Z,1.00
2023-01-20T08:21:45.778Z,1.00
2023-01-20T08:22:47.594Z,1.00
2023-01-20T08:23:50.122Z,1.00
2023-01-20T08:24:51.742Z,1.10
2023-01-20T08:26:00.250Z,1.10
2023-01-20T08:27:02.234Z,1.10
2023-01-20T08:28:07.252Z,1.10
2023-01-20T08:29:10.031Z,1.20
2023-01-20T08:30:12.327Z,1.20
2023-01-20T08:31:15.788Z,1.20
2023-01-20T08:32:17.570Z,1.20
2023-01-20T08:33:21.039Z,1.20
2023-01-20T08:34:23.321Z,1.20
2023-01-20T08:35:25.019Z,1.20
2023-01-20T08:36:29.216Z,1.20
2023-01-20T08:37:30.934Z,1.20
2023-01-20T08:38:32.798Z,1.20
2023-01-20T08:39:34.443Z,1.20
2023-01-20T08:40:36.469Z,1.30
2023-01-20T08:41:39.911Z,1.20
2023-01-20T08:42:41.723Z,1.30
2023-01-20T08:43:43.469Z,1.20
2023-01-20T08:44:45.281Z,1.30
2023-01-20T08:45:47.836Z,1.30
2023-01-20T08:46:52.971Z,1.30
2023-01-20T08:47:55.895Z,1.30
2023-01-20T08:48:57.950Z,1.30
2023-01-20T08:49:59.807Z,1.30
2023-01-20T08:51:05.950Z,1.40
2023-01-20T08:52:09.701Z,1.30
2023-01-20T08:53:13.150Z,1.30
2023-01-20T08:54:15.165Z,1.30
2023-01-20T08:55:17.346Z,1.30
2023-01-20T08:56:19.897Z,1.30
2023-01-20T08:57:24.658Z,1.30
2023-01-20T08:58:27.643Z,1.40
2023-01-20T08:59:29.525Z,1.40
2023-01-20T09:00:31.337Z,1.40
2023-01-20T09:01:35.982Z,1.40
2023-01-20T09:02:38.152Z,1.40
2023-01-20T09:03:41.033Z,1.40
2023-01-20T09:04:43.811Z,1.40
2023-01-20T09:05:45.808Z,1.50
2023-01-20T09:06:50.183Z,1.50
2023-01-20T09:07:51.953Z,1.50
2023-01-20T09:08:55.063Z,1.50
2023-01-20T09:09:56.847Z,1.50
2023-01-20T09:11:05.909Z,1.50
2023-01-20T09:12:08.058Z,1.50
2023-01-20T09:13:09.910Z,1.50
2023-01-20T09:14:11.840Z,1.50
2023-01-20T09:15:14.036Z,1.50
2023-01-20T09:16:17.065Z,1.50
2023-01-20T09:17:18.915Z,1.50
2023-01-20T09:18:20.674Z,1.50
2023-01-20T09:19:22.576Z,1.60
2023-01-20T09:20:25.648Z,1.50
2023-01-20T09:21:27.269Z,1.60
2023-01-20T09:22:29.036Z,1.60
2023-01-20T09:23:30.676Z,1.60
2023-01-20T09:24:32.606Z,1.60
2023-01-20T09:25:34.288Z,1.60
2023-01-20T09:26:39.111Z,1.60
2023-01-20T09:27:40.765Z,1.60
2023-01-20T09:28:46.471Z,1.60
2023-01-20T09:29:48.116Z,1.60
2023-01-20T09:30:49.856Z,1.60
2023-01-20T09:31:51.598Z,1.60
2023-01-20T09:32:55.340Z,1.70
2023-01-20T09:33:57.067Z,1.70
2023-01-20T09:34:58.768Z,1.70
2023-01-20T09:36:00.380Z,1.70
2023-01-20T09:37:22.481Z,1.80
2023-01-20T09:38:43.405Z,1.80
2023-01-20T09:40:03.927Z,1.80
2023-01-20T09:41:30.520Z,1.80
2023-01-20T09:43:05.451Z,1.70
2023-01-20T09:44:17.897Z,1.80
2023-01-20T09:45:30.597Z,1.80
2023-01-20T09:46:36.694Z,1.80
2023-01-20T09:47:43.549Z,1.80
2023-01-20T09:49:16.032Z,1.90
2023-01-20T09:50:53.562Z,1.90
2023-01-20T09:52:19.759Z,1.90
2023-01-20T09:53:36.836Z,1.90
2023-01-20T09:54:41.943Z,1.90
2023-01-20T09:55:49.676Z,2.00
2023-01-20T09:56:54.611Z,2.00
2023-01-20T09:58:16.607Z,2.00
2023-01-20T09:59:29.881Z,2.00
2023-01-20T10:00:32.920Z,2.10
2023-01-20T10:01:49.658Z,2.10
2023-01-20T10:03:25.468Z,2.20
2023-01-20T10:04:31.189Z,2.20
2023-01-20T10:05:41.223Z,2.20
2023-01-20T10:06:45.931Z,2.20
2023-01-20T10:07:47.835Z,2.30
2023-01-20T10:09:21.390Z,2.40
2023-01-20T10:10:28.973Z,2.40
2023-01-20T10:11:32.344Z,2.50
2023-01-20T10:12:37.765Z,2.50
2023-01-20T10:13:47.453Z,2.50
2023-01-20T10:14:55.470Z,2.60
2023-01-20T10:15:58.565Z,2.60
2023-01-20T10:17:22.516Z,2.60
2023-01-20T10:18:30.456Z,2.70
2023-01-20T10:19:38.481Z,2.70
2023-01-20T10:20:51.924Z,2.80
2023-01-20T10:21:59.906Z,2.80
2023-01-20T10:23:11.118Z,2.90
2023-01-20T10:24:19.778Z,2.90
2023-01-20T10:25:22.932Z,3.00
2023-01-20T10:26:38.843Z,3.00
2023-01-20T10:27:45.136Z,3.00
2023-01-20T10:28:53.080Z,3.10
2023-01-20T10:29:58.799Z,3.10
2023-01-20T10:31:01.662Z,3.10
2023-01-20T10:32:06.069Z,3.00
2023-01-20T10:33:22.136Z,3.00
2023-01-20T10:34:25.615Z,3.10
2023-01-20T10:35:29.183Z,3.10
2023-01-20T10:36:31.633Z,3.10
2023-01-20T10:37:35.403Z,3.00
2023-01-20T10:38:52.815Z,3.00
2023-01-20T10:40:02.060Z,3.10
2023-01-20T10:41:08.104Z,3.10
2023-01-20T10:42:14.200Z,3.10
2023-01-20T10:43:16.913Z,3.10
2023-01-20T10:44:18.699Z,3.10
2023-01-20T10:45:24.061Z,3.10
2023-01-20T10:46:41.372Z,3.10
2023-01-20T10:47:58.431Z,3.20
2023-01-20T10:49:12.941Z,3.10
2023-01-20T10:50:38.498Z,3.20
2023-01-20T10:51:40.801Z,3.20
2023-01-20T10:52:53.778Z,3.20
2023-01-20T10:54:01.453Z,3.20
2023-01-20T10:55:18.915Z,3.20
2023-01-20T10:56:26.898Z,3.20
2023-01-20T10:57:28.677Z,3.30
2023-01-20T10:58:32.269Z,3.30
2023-01-20T10:59:37.719Z,3.30
2023-01-20T11:00:39.679Z,3.40
2023-01-20T11:01:42.399Z,3.40
2023-01-20T11:02:44.318Z,3.40
2023-01-20T11:03:47.855Z,3.40
2023-01-20T11:04:53.260Z,3.50
2023-01-20T11:05:55.132Z,3.50
2023-01-20T11:06:59.632Z,3.60
2023-01-20T11:08:02.150Z,3.60
2023-01-20T11:09:22.244Z,3.70
2023-01-20T11:10:27.461Z,3.70
2023-01-20T11:11:29.638Z,3.70
2023-01-20T11:12:34.998Z,3.80
2023-01-20T11:13:36.656Z,3.80
2023-01-20T11:14:38.424Z,3.90
2023-01-20T11:15:51.955Z,4.00
2023-01-20T11:16:58.591Z,4.00
2023-01-20T11:18:15.568Z,4.10
2023-01-20T11:19:17.335Z,4.20
2023-01-20T11:20:23.252Z,4.30
2023-01-20T11:21:25.714Z,4.40
2023-01-20T11:22:35.332Z,4.60
2023-01-20T11:23:52.630Z,4.70
2023-01-20T11:24:55.914Z,4.80
2023-01-20T11:25:58.958Z,5.00
2023-01-20T11:27:05.416Z,5.00
2023-01-20T11:28:16.085Z,5.00
2023-01-20T11:29:17.705Z,5.00
2023-01-20T11:30:22.434Z,5.00
2023-01-20T11:31:36.466Z,5.10
2023-01-20T11:32:40.272Z,5.10
2023-01-20T11:33:54.719Z,5.10
2023-01-20T11:34:57.013Z,5.10
2023-01-20T11:36:18.886Z,5.00
2023-01-20T11:37:22.013Z,5.10
2023-01-20T11:38:25.165Z,5.10
2023-01-20T11:39:33.871Z,5.20
2023-01-20T11:40:35.782Z,5.30
2023-01-20T11:41:38.637Z,5.30
2023-01-20T11:42:45.053Z,5.40
2023-01-20T11:43:47.103Z,5.50
2023-01-20T11:44:50.200Z,5.50
2023-01-20T11:45:52.806Z,5.60
2023-01-20T11:46:55.206Z,5.70
2023-01-20T11:48:16.642Z,5.70
2023-01-20T11:49:21.970Z,5.70
2023-01-20T11:50:29.509Z,5.70
2023-01-20T11:51:31.393Z,5.70
2023-01-20T11:52:34.203Z,5.70
2023-01-20T11:53:36.496Z,5.70
2023-01-20T11:54:38.659Z,5.70
2023-01-20T11:55:46.239Z,5.70
2023-01-20T11:56:50.454Z,5.70
2023-01-20T11:57:56.920Z,5.70
2023-01-20T11:59:01.963Z,5.60
2023-01-20T12:00:04.541Z,5.50
2023-01-20T12:01:07.523Z,5.40
2023-01-20T12:02:10.884Z,5.30
2023-01-20T12:03:21.640Z,5.20
2023-01-20T12:04:23.377Z,5.10
2023-01-20T12:05:45.352Z,4.90
2023-01-20T12:06:47.033Z,4.80
2023-01-20T12:07:51.173Z,4.70
2023-01-20T12:08:56.305Z,4.50
2023-01-20T12:10:17.474Z,4.40
2023-01-20T12:11:26.043Z,4.30
2023-01-20T12:12:31.327Z,4.10
2023-01-20T12:14:14.950Z,4.00
2023-01-20T12:15:21.087Z,3.90
2023-01-20T12:16:25.466Z,3.70
2023-01-20T12:17:37.231Z,3.60
2023-01-20T12:18:53.373Z,3.50
2023-01-20T12:20:05.633Z,3.50
2023-01-20T12:21:17.801Z,3.40
2023-01-20T12:22:24.412Z,3.40
2023-01-20T12:23:28.916Z,3.40
2023-01-20T12:24:58.914Z,3.30
2023-01-20T12:26:02.178Z,3.30
2023-01-20T12:27:04.004Z,3.30
2023-01-20T12:28:10.632Z,3.30
2023-01-20T12:29:15.612Z,3.20
2023-01-20T12:30:27.693Z,3.20
2023-01-20T12:31:30.187Z,3.20
2023-01-20T12:32:33.246Z,3.20
2023-01-20T12:33:43.337Z,3.20
2023-01-20T12:34:45.039Z,3.10
2023-01-20T12:36:07.057Z,3.10
2023-01-20T12:37:08.803Z,3.10
2023-01-20T12:38:13.442Z,3.10
2023-01-20T12:39:27.061Z,3.00
2023-01-20T12:40:44.920Z,3.00
2023-01-20T12:41:52.584Z,2.90
2023-01-20T12:43:15.543Z,2.90
2023-01-20T12:44:20.492Z,2.90
2023-01-20T12:45:22.255Z,2.80
2023-01-20T12:46:42.293Z,2.80
2023-01-20T12:48:04.369Z,2.80
2023-01-20T12:49:25.567Z,2.80
2023-01-20T12:50:32.311Z,2.70
2023-01-20T12:51:43.129Z,2.70
2023-01-20T12:52:45.140Z,2.70
2023-01-20T12:54:07.110Z,2.70
2023-01-20T12:55:11.608Z,2.70
2023-01-20T12:56:24.362Z,2.70
2023-01-20T12:57:45.007Z,2.70
2023-01-20T12:58:57.733Z,2.60
2023-01-20T12:59:59.573Z,2.60
2023-01-20T13:01:20.094Z,2.60
2023-01-20T13:02:21.955Z,2.60
2023-01-20T13:03:51.268Z,2.60
2023-01-20T13:05:11.908Z,2.60
2023-01-20T13:06:32.526Z,2.60
2023-01-20T13:07:46.351Z,2.60
2023-01-20T13:08:58.312Z,2.60
2023-01-20T13:10:15.427Z,2.60
2023-01-20T13:11:29.525Z,2.50
2023-01-20T13:12:41.385Z,2.60
2023-01-20T13:13:57.736Z,2.60
2023-01-20T13:15:19.300Z,2.60
2023-01-20T13:16:31.257Z,2.60
2023-01-20T13:17:42.940Z,2.50
2023-01-20T13:19:03.846Z,2.50
2023-01-20T13:20:14.714Z,2.50
2023-01-20T13:21:19.097Z,2.50
2023-01-20T13:22:25.055Z,2.40
2023-01-20T13:23:33.451Z,2.40
2023-01-20T13:24:35.534Z,2.40
2023-01-20T13:25:39.146Z,2.40
2023-01-20T13:26:40.910Z,2.40
2023-01-20T13:27:43.152Z,2.40
2023-01-20T13:28:50.761Z,2.40
2023-01-20T13:29:53.798Z,2.40
2023-01-20T13:31:00.373Z,2.40
2023-01-20T13:32:05.704Z,2.40
2023-01-20T13:33:13.776Z,2.40
2023-01-20T13:34:21.193Z,2.40
2023-01-20T13:35:25.850Z,2.40
2023-01-20T13:36:27.615Z,2.40
2023-01-20T13:37:29.342Z,2.40
2023-01-20T13:38:33.164Z,2.40
2023-01-20T13:39:39.702Z,2.30
2023-01-20T13:40:49.472Z,2.30
2023-01-20T13:41:52.156Z,2.30
2023-01-20T13:42:54.724Z,2.30
2023-01-20T13:43:56.527Z,2.30
2023-01-20T13:45:14.271Z,2.30
2023-01-20T13:46:36.305Z,2.20
2023-01-20T13:48:00.063Z,2.20
2023-01-20T13:49:12.633Z,2.20
2023-01-20T13:50:21.926Z,2.10
2023-01-20T13:51:32.220Z,2.10
2023-01-20T13:52:52.644Z,2.00
2023-01-20T13:53:54.382Z,2.00
2023-01-20T13:54:57.673Z,2.10
2023-01-20T13:56:00.662Z,2.00
2023-01-20T13:57:23.158Z,2.00
2023-01-20T13:58:28.822Z,2.00
2023-01-20T13:59:30.580Z,2.00
2023-01-20T14:00:32.251Z,2.00
2023-01-20T14:01:35.701Z,1.90
2023-01-20T14:02:38.672Z,1.90
2023-01-20T14:03:40.828Z,1.90
2023-01-20T14:04:45.486Z,1.90
2023-01-20T14:05:57.365Z,1.90
2023-01-20T14:06:59.152Z,1.90
2023-01-20T14:08:01.072Z,1.90
2023-01-20T14:09:03.285Z,1.90
2023-01-20T14:10:05.258Z,1.90
2023-01-20T14:11:10.036Z,1.90
2023-01-20T14:12:11.660Z,1.90
2023-01-20T14:13:21.399Z,1.90
2023-01-20T14:14:26.763Z,1.90
2023-01-20T14:15:32.037Z,1.80
2023-01-20T14:16:37.051Z,1.80
2023-01-20T14:17:38.828Z,1.80
2023-01-20T14:18:40.643Z,1.80
2023-01-20T14:19:46.055Z,1.80
2023-01-20T14:21:03.859Z,1.80
2023-01-20T14:22:26.197Z,1.80
2023-01-20T14:23:30.422Z,1.70